Who's Online

We have 6 guests online

Aviation WX

[source: ADDS]
METAR
KIAD 291623Z 09009G18KT 2 1/2SM R01R/6000VP6000FT -RA BR BKN009 OVC012 20/19 A3013 RMK AO2 P0000 T02000189 =
TAF
KIAD 291432Z 2915/3018 10012G20KT 2SM -RA BR BKN009 OVC012 FM291800 09012G19KT 3SM SHRA OVC008 FM301200 06012KT 5SM -SHRA OVC008 =
SR / SS: 00:46 / 12:37 UTC (Washington-Dulles 2016-09-29)

JoomlaWatch Agent

Home Products and Services

This section describes Multilink Systems products and services

 

 

Under construction Please Standby